createdAt,value
2023-03-25T00:03:04.453Z,80.19
2023-03-25T00:08:06.399Z,80.17
2023-03-25T00:13:08.420Z,79.59
2023-03-25T00:18:09.992Z,79.69
2023-03-25T00:23:14.424Z,79.90
2023-03-25T00:28:17.081Z,80.30
2023-03-25T00:33:19.280Z,79.47
2023-03-25T00:38:20.900Z,80.04
2023-03-25T00:43:22.524Z,79.73
2023-03-25T00:48:24.184Z,80.74
2023-03-25T00:53:26.120Z,80.25
2023-03-25T00:58:27.843Z,80.67
2023-03-25T01:03:29.542Z,80.93
2023-03-25T01:08:32.105Z,80.57
2023-03-25T01:13:34.218Z,81.42
2023-03-25T01:18:37.944Z,80.70
2023-03-25T01:23:39.759Z,81.36
2023-03-25T01:28:42.699Z,81.45
2023-03-25T01:33:44.324Z,81.56
2023-03-25T01:38:48.083Z,81.66
2023-03-25T01:44:08.688Z,81.75
2023-03-25T01:49:17.167Z,81.88
2023-03-25T01:54:19.463Z,81.49
2023-03-25T01:59:27.180Z,82.04
2023-03-25T02:05:04.944Z,81.67
2023-03-25T02:10:08.745Z,81.21
2023-03-25T02:15:11.238Z,81.09
2023-03-25T02:20:18.780Z,81.38
2023-03-25T02:25:54.962Z,80.47
2023-03-25T02:31:05.711Z,80.33
2023-03-25T02:36:41.517Z,79.70
2023-03-25T02:41:53.374Z,79.29
2023-03-25T02:47:00.337Z,80.15
2023-03-25T02:52:09.375Z,79.99
2023-03-25T02:57:14.184Z,81.00
2023-03-25T03:02:17.510Z,81.26
2023-03-25T03:07:39.809Z,81.76
2023-03-25T03:12:56.585Z,81.72
2023-03-25T03:18:27.220Z,80.80
2023-03-25T03:23:37.099Z,80.69
2023-03-25T03:28:50.488Z,81.68
2023-03-25T03:34:05.678Z,81.04
2023-03-25T03:39:38.163Z,82.36
2023-03-25T03:44:42.904Z,80.81
2023-03-25T03:49:53.561Z,80.70
2023-03-25T03:55:00.816Z,79.59
2023-03-25T04:00:10.079Z,80.51
2023-03-25T04:05:17.795Z,80.40
2023-03-25T04:10:29.863Z,79.29
2023-03-25T04:15:31.747Z,79.35
2023-03-25T04:20:36.589Z,78.92
2023-03-25T04:25:38.415Z,79.58
2023-03-25T04:30:40.868Z,79.68
2023-03-25T04:35:42.554Z,79.35
2023-03-25T04:40:46.771Z,80.13
2023-03-25T04:45:55.066Z,80.04
2023-03-25T04:50:59.180Z,79.84
2023-03-25T04:56:00.775Z,79.06
2023-03-25T05:01:06.251Z,78.87
2023-03-25T05:06:08.099Z,78.33
2023-03-25T05:11:09.781Z,78.28
2023-03-25T05:16:11.385Z,78.23
2023-03-25T05:21:13.197Z,79.70
2023-03-25T05:26:14.875Z,78.40
2023-03-25T05:31:16.462Z,78.05
2023-03-25T05:36:18.347Z,76.22
2023-03-25T05:41:21.378Z,75.44
2023-03-25T05:46:23.127Z,74.26
2023-03-25T05:51:26.406Z,75.65
2023-03-25T05:56:28.140Z,73.36
2023-03-25T06:01:33.379Z,73.61
2023-03-25T06:06:36.100Z,75.47
2023-03-25T06:11:46.779Z,76.23
2023-03-25T06:16:50.101Z,77.27
2023-03-25T06:21:52.217Z,77.74
2023-03-25T06:26:54.028Z,78.33
2023-03-25T06:31:55.859Z,78.71
2023-03-25T06:36:57.472Z,75.80
2023-03-25T06:42:00.305Z,73.53
2023-03-25T06:47:11.508Z,73.67
2023-03-25T06:52:18.618Z,70.91
2023-03-25T06:57:20.288Z,72.16
2023-03-25T07:02:21.883Z,71.30
2023-03-25T07:07:23.539Z,71.04
2023-03-25T07:12:25.337Z,67.50
2023-03-25T07:17:27.354Z,66.51
2023-03-25T07:22:29.012Z,61.98
2023-03-25T07:27:30.942Z,59.15
2023-03-25T07:32:39.096Z,60.53
2023-03-25T07:37:40.812Z,63.47
2023-03-25T07:42:43.831Z,67.26
2023-03-25T07:48:13.689Z,69.33
2023-03-25T07:53:15.554Z,72.83
2023-03-25T07:58:18.491Z,75.00
2023-03-25T08:03:21.283Z,75.92
2023-03-25T08:08:23.115Z,76.55
2023-03-25T08:13:25.853Z,74.83
2023-03-25T08:18:27.646Z,72.99
2023-03-25T08:23:29.315Z,74.61
2023-03-25T08:28:31.422Z,76.75
2023-03-25T08:33:41.060Z,80.50
2023-03-25T08:38:42.874Z,88.73
2023-03-25T08:43:45.202Z,91.65
2023-03-25T08:48:50.107Z,91.01
2023-03-25T08:53:52.011Z,91.35
2023-03-25T08:58:53.655Z,91.90
2023-03-25T09:03:57.048Z,91.24
2023-03-25T09:08:58.718Z,92.36
2023-03-25T09:14:05.013Z,89.40
2023-03-25T09:19:06.976Z,93.32
2023-03-25T09:24:09.841Z,93.42
2023-03-25T09:29:11.441Z,95.69
2023-03-25T09:34:14.626Z,95.77
2023-03-25T09:39:17.648Z,98.46
2023-03-25T09:44:24.832Z,97.00
2023-03-25T09:49:39.633Z,94.75
2023-03-25T09:54:48.547Z,89.12
2023-03-25T09:59:51.873Z,91.26
2023-03-25T10:05:04.272Z,92.30
2023-03-25T10:10:44.322Z,91.98
2023-03-25T10:16:03.896Z,90.56
2023-03-25T10:21:19.219Z,83.45
2023-03-25T10:26:31.873Z,75.88
2023-03-25T10:31:39.534Z,74.28
2023-03-25T10:36:49.311Z,65.88
2023-03-25T10:42:01.852Z,69.32
2023-03-25T10:47:12.585Z,72.35
2023-03-25T10:52:15.996Z,70.99
2023-03-25T10:57:26.116Z,68.53
2023-03-25T11:02:31.369Z,60.70
2023-03-25T11:07:36.257Z,62.31
2023-03-25T11:12:43.153Z,60.71
2023-03-25T11:17:47.386Z,58.94
2023-03-25T11:22:53.400Z,63.29
2023-03-25T11:28:02.121Z,65.90
2023-03-25T11:33:14.434Z,70.40
2023-03-25T11:38:20.170Z,70.92
2023-03-25T11:43:24.943Z,67.71
2023-03-25T11:48:35.066Z,61.20
2023-03-25T11:53:36.734Z,59.59
2023-03-25T11:58:40.676Z,57.68
2023-03-25T12:03:42.458Z,58.71
2023-03-25T12:08:50.478Z,56.06
2023-03-25T12:14:12.393Z,56.80
2023-03-25T12:19:19.633Z,56.22
2023-03-25T12:24:56.739Z,57.18
2023-03-25T12:30:38.166Z,54.79
2023-03-25T12:35:47.310Z,55.26
2023-03-25T12:41:12.799Z,56.70
2023-03-25T12:47:11.624Z,61.97
2023-03-25T12:52:43.127Z,76.88
2023-03-25T12:58:01.585Z,70.27
2023-03-25T13:03:21.594Z,69.99
2023-03-25T13:08:32.372Z,75.27
2023-03-25T13:13:37.103Z,72.52
2023-03-25T13:18:46.139Z,68.00
2023-03-25T13:23:54.638Z,69.80
2023-03-25T13:29:12.149Z,70.37
2023-03-25T13:34:28.481Z,68.80
2023-03-25T13:39:37.641Z,67.18
2023-03-25T13:44:43.207Z,65.96
2023-03-25T13:49:53.114Z,64.13
2023-03-25T13:55:01.426Z,62.28
2023-03-25T14:00:12.418Z,60.05
2023-03-25T14:05:32.455Z,59.33
2023-03-25T14:10:53.814Z,58.16
2023-03-25T14:16:27.471Z,58.73
2023-03-25T14:21:56.008Z,59.45
2023-03-25T14:27:19.776Z,58.81
2023-03-25T14:32:21.331Z,60.39
2023-03-25T14:37:26.121Z,60.54
2023-03-25T14:42:29.443Z,84.27
2023-03-25T14:47:34.022Z,90.90
2023-03-25T14:52:49.459Z,91.67
2023-03-25T14:58:00.614Z,88.35
2023-03-25T15:03:12.810Z,86.58
2023-03-25T15:08:17.740Z,82.28
2023-03-25T15:13:26.026Z,82.07
2023-03-25T15:18:37.203Z,80.01
2023-03-25T15:23:49.678Z,76.72
2023-03-25T15:29:28.315Z,72.73
2023-03-25T15:34:55.385Z,70.21
2023-03-25T15:40:12.945Z,69.69
2023-03-25T15:45:29.524Z,67.94
2023-03-25T15:50:37.490Z,68.06
2023-03-25T15:55:39.122Z,67.60
2023-03-25T16:00:47.276Z,68.46
2023-03-25T16:05:55.518Z,68.65
2023-03-25T16:10:57.293Z,69.17
2023-03-25T16:15:59.126Z,68.73
2023-03-25T16:21:03.074Z,68.55
2023-03-25T16:26:05.553Z,68.95
2023-03-25T16:31:29.115Z,68.51
2023-03-25T16:36:30.868Z,69.19
2023-03-25T16:41:32.448Z,68.69
2023-03-25T16:46:34.208Z,68.76
2023-03-25T16:51:39.067Z,70.42
2023-03-25T16:56:43.287Z,69.79
2023-03-25T17:01:55.481Z,71.38
2023-03-25T17:07:00.940Z,71.46
2023-03-25T17:12:08.023Z,71.76
2023-03-25T17:17:23.038Z,72.69
2023-03-25T17:22:35.254Z,72.66
2023-03-25T17:27:38.758Z,72.50
2023-03-25T17:32:44.812Z,73.00
2023-03-25T17:37:50.625Z,73.79
2023-03-25T17:42:53.429Z,73.90
2023-03-25T17:47:55.239Z,73.70
2023-03-25T17:52:57.520Z,73.52
2023-03-25T17:57:59.139Z,73.78
2023-03-25T18:03:00.758Z,73.71
2023-03-25T18:08:03.852Z,74.81
2023-03-25T18:13:05.495Z,74.91
2023-03-25T18:18:17.897Z,74.75
2023-03-25T18:23:19.506Z,74.61
2023-03-25T18:28:21.779Z,74.41
2023-03-25T18:33:23.909Z,75.42
2023-03-25T18:38:27.565Z,76.64
2023-03-25T18:43:29.184Z,75.99
2023-03-25T18:48:30.850Z,75.33
2023-03-25T18:53:32.512Z,75.40
2023-03-25T18:58:36.492Z,75.95
2023-03-25T19:03:41.298Z,76.45
2023-03-25T19:08:44.445Z,76.49
2023-03-25T19:13:46.067Z,76.43
2023-03-25T19:18:47.944Z,76.76
2023-03-25T19:23:49.863Z,76.73
2023-03-25T19:28:51.723Z,76.24
2023-03-25T19:33:53.337Z,75.57
2023-03-25T19:38:58.799Z,75.36
2023-03-25T19:44:00.569Z,74.21
2023-03-25T19:49:02.199Z,73.45
2023-03-25T19:54:04.066Z,76.78
2023-03-25T19:59:05.700Z,83.19
2023-03-25T20:04:07.355Z,83.19
2023-03-25T20:09:10.643Z,84.32
2023-03-25T20:14:12.274Z,85.57
2023-03-25T20:19:13.879Z,85.81
2023-03-25T20:24:15.831Z,86.12
2023-03-25T20:29:19.593Z,86.03
2023-03-25T20:34:21.301Z,86.78
2023-03-25T20:39:24.685Z,87.17
2023-03-25T20:44:26.348Z,92.17
2023-03-25T20:49:28.006Z,92.12
2023-03-25T20:54:29.718Z,92.36
2023-03-25T20:59:31.871Z,92.08
2023-03-25T21:04:33.471Z,91.21
2023-03-25T21:09:36.044Z,90.58
2023-03-25T21:14:38.008Z,89.98
2023-03-25T21:19:40.168Z,88.79
2023-03-25T21:24:41.822Z,88.12
2023-03-25T21:29:43.971Z,88.60
2023-03-25T21:34:45.563Z,87.27
2023-03-25T21:39:48.029Z,87.36
2023-03-25T21:44:49.626Z,85.35
2023-03-25T21:49:51.288Z,85.28
2023-03-25T21:54:54.934Z,84.08
2023-03-25T21:59:57.098Z,84.42
2023-03-25T22:04:58.682Z,82.44
2023-03-25T22:10:00.339Z,81.66
2023-03-25T22:15:02.273Z,80.59
2023-03-25T22:20:05.518Z,80.11
2023-03-25T22:25:08.811Z,78.92
2023-03-25T22:30:11.284Z,78.21
2023-03-25T22:35:14.232Z,78.46
2023-03-25T22:40:15.837Z,78.32
2023-03-25T22:45:17.879Z,77.65
2023-03-25T22:50:19.785Z,78.96
2023-03-25T22:55:21.403Z,79.00
2023-03-25T23:00:25.908Z,79.90
2023-03-25T23:05:27.511Z,80.40
2023-03-25T23:10:29.128Z,82.36
2023-03-25T23:15:30.713Z,81.67
2023-03-25T23:20:32.387Z,82.37
2023-03-25T23:25:33.992Z,82.45
2023-03-25T23:30:36.048Z,81.94
2023-03-25T23:35:37.668Z,82.99
2023-03-25T23:40:39.289Z,82.01
2023-03-25T23:45:42.022Z,81.88
2023-03-25T23:50:47.351Z,80.21
2023-03-25T23:55:55.586Z,79.77
